KHUL/HUL METAR and TAF weather

Enter ICAO airport designator
Station Type Date Time Source
KHUL METAR 2021/05/15 00:53 UTC NOAA

KHUL 150053Z AUTO 00000KT 10SM CLR 08/M02 A3007 RMK AO2 SLP187 T00831017 $


Station Type Date Time Source
KHUL Decoded METAR 2021/05/15 00:53 UTC NOAA

HOULTON INT'L AIRPORT, ME, United States (KHUL) 46-07N 067-48W 150M
May 14, 2021 - 08:53 PM EDT / 2021.05.15 0053 UTC
Wind: Calm:0
Visibility: 10 mile(s):0
Sky conditions: clear
Temperature: 46.9 F (8.3 C)
Dew Point: 28.9 F (-1.7 C)
Relative Humidity: 49%
Pressure (altimeter): 30.07 in. Hg (1018 hPa)
ob: KHUL 150053Z AUTO 00000KT 10SM CLR 08/M02 A3007 RMK AO2 SLP187 T00831017
cycle: 1

Station Type Date Time Source
KHUL TAF 2021/05/14 18:39 UTC NOAA

KHUL 141735Z 1418/1518 33013G22KT P6SM FEW100
FM142200 35007G13KT P6SM SKC
FM150100 VRB02KT P6SM SKC
FM151300 18006KT P6SM SCT100
FM151630 19007KT P6SM VCSH BKN070

Example: see airport list